カンポ・グランデ の空港の天気 - METARとTAF

カンポ・グランデ国際空港 ( SBCG / CGR ) - ブラジル マットグロッソ・ド・スル州カンポ・グランデ
飛行場実況気象(Metar)
観測時間07/18 09:00 AMT (07/18 13:00 UTC)
風向・風速東 6m/s
視程10km以上
天気現象
なし
気温19℃
湿度52%
気圧1021hPa
METARSBCG 181300Z 08012KT CAVOK 19/09 Q1021
過去の天気等 Google飛行場航空写真 Wunderground天気予報

過去48時間のMETAR

飛行場予報(TAF)
発表時間: 7/18 05:00 AMT (7/18 09:00 UTC)
予報対象時間: 18日8時 AMT ~ 19日8時 AMT
風向・風速東 8m/s
視程10km以上
なし
18日10時 AMT ~ 18日12時 AMT に徐々に
風向・風速東 5m/s
19日2時 AMT ~ 19日4時 AMT に徐々に
風向・風速東北東 8m/s
TAF SBCG 180900Z 1812/1912 08015KT CAVOK TX26/1818Z TN16/1908Z
BECMG 1814/1816 08010KT
BECMG 1906/1908 07015KT RMK PDW